sensor_id;sensor_type;location;lat;lon;timestamp;temperature;humidity
11736;DHT22;5924;51.398;7.088;2023-02-26T00:01:52;-1.00;99.90
11736;DHT22;5924;51.398;7.088;2023-02-26T00:04:18;-1.00;99.90
11736;DHT22;5924;51.398;7.088;2023-02-26T00:06:44;-1.00;99.90
11736;DHT22;5924;51.398;7.088;2023-02-26T00:09:19;-1.00;99.90
11736;DHT22;5924;51.398;7.088;2023-02-26T00:11:45;2.00;99.90
11736;DHT22;5924;51.398;7.088;2023-02-26T00:14:13;-1.10;99.90
11736;DHT22;5924;51.398;7.088;2023-02-26T00:16:40;-1.20;99.90
11736;DHT22;5924;51.398;7.088;2023-02-26T00:19:07;-1.30;99.90
11736;DHT22;5924;51.398;7.088;2023-02-26T00:21:34;-1.30;99.90
11736;DHT22;5924;51.398;7.088;2023-02-26T00:24:00;-1.40;99.90
11736;DHT22;5924;51.398;7.088;2023-02-26T00:26:28;-1.40;99.90
11736;DHT22;5924;51.398;7.088;2023-02-26T00:28:55;-1.30;99.90
11736;DHT22;5924;51.398;7.088;2023-02-26T00:31:21;-1.30;99.90
11736;DHT22;5924;51.398;7.088;2023-02-26T00:33:50;-1.10;99.90
11736;DHT22;5924;51.398;7.088;2023-02-26T00:36:28;-1.30;99.90
11736;DHT22;5924;51.398;7.088;2023-02-26T00:41:32;-1.20;99.90
11736;DHT22;5924;51.398;7.088;2023-02-26T00:43:58;-1.20;99.90
11736;DHT22;5924;51.398;7.088;2023-02-26T00:46:27;-1.20;99.90
11736;DHT22;5924;51.398;7.088;2023-02-26T00:51:50;-1.20;99.90
11736;DHT22;5924;51.398;7.088;2023-02-26T00:54:27;-1.20;99.90
11736;DHT22;5924;51.398;7.088;2023-02-26T00:56:53;-1.20;99.90
11736;DHT22;5924;51.398;7.088;2023-02-26T00:59:20;-1.10;99.90
11736;DHT22;5924;51.398;7.088;2023-02-26T01:01:47;-1.00;99.90
11736;DHT22;5924;51.398;7.088;2023-02-26T01:04:14;-0.90;99.90
11736;DHT22;5924;51.398;7.088;2023-02-26T01:06:51;-0.20;99.90
11736;DHT22;5924;51.398;7.088;2023-02-26T01:09:47;-0.80;99.90
11736;DHT22;5924;51.398;7.088;2023-02-26T01:12:13;-0.70;99.90
11736;DHT22;5924;51.398;7.088;2023-02-26T01:14:39;-0.70;99.90
11736;DHT22;5924;51.398;7.088;2023-02-26T01:22:26;-0.50;99.90
11736;DHT22;5924;51.398;7.088;2023-02-26T01:25:06;-0.50;99.90
11736;DHT22;5924;51.398;7.088;2023-02-26T01:27:32;-0.50;99.90
11736;DHT22;5924;51.398;7.088;2023-02-26T01:29:58;-0.50;99.90
11736;DHT22;5924;51.398;7.088;2023-02-26T01:32:42;-0.50;99.90
11736;DHT22;5924;51.398;7.088;2023-02-26T01:35:23;-0.50;99.90
11736;DHT22;5924;51.398;7.088;2023-02-26T01:38:07;-0.50;99.90
11736;DHT22;5924;51.398;7.088;2023-02-26T01:43:58;-0.50;99.90
11736;DHT22;5924;51.398;7.088;2023-02-26T01:48:50;-0.50;99.90
11736;DHT22;5924;51.398;7.088;2023-02-26T01:51:17;-0.50;99.90
11736;DHT22;5924;51.398;7.088;2023-02-26T01:53:44;-0.50;99.90
11736;DHT22;5924;51.398;7.088;2023-02-26T01:56:15;-0.60;99.90
11736;DHT22;5924;51.398;7.088;2023-02-26T01:58:42;-0.60;99.90
11736;DHT22;5924;51.398;7.088;2023-02-26T02:01:09;-0.60;99.90
11736;DHT22;5924;51.398;7.088;2023-02-26T02:03:36;-0.60;99.90
11736;DHT22;5924;51.398;7.088;2023-02-26T02:06:06;-0.60;99.90
11736;DHT22;5924;51.398;7.088;2023-02-26T02:08:33;-0.60;99.90
11736;DHT22;5924;51.398;7.088;2023-02-26T02:11:01;-0.60;99.90
11736;DHT22;5924;51.398;7.088;2023-02-26T02:22:14;-0.80;99.90
11736;DHT22;5924;51.398;7.088;2023-02-26T02:25:39;-0.80;99.90
11736;DHT22;5924;51.398;7.088;2023-02-26T02:33:15;-0.90;99.90
11736;DHT22;5924;51.398;7.088;2023-02-26T02:35:53;-1.00;99.90
11736;DHT22;5924;51.398;7.088;2023-02-26T02:38:30;-1.10;99.90
11736;DHT22;5924;51.398;7.088;2023-02-26T02:41:19;-1.20;99.90
11736;DHT22;5924;51.398;7.088;2023-02-26T02:43:48;-1.10;99.90
11736;DHT22;5924;51.398;7.088;2023-02-26T02:46:22;-1.20;99.90
11736;DHT22;5924;51.398;7.088;2023-02-26T02:49:01;-1.20;99.90
11736;DHT22;5924;51.398;7.088;2023-02-26T02:54:19;-1.30;99.90
11736;DHT22;5924;51.398;7.088;2023-02-26T02:57:03;-1.30;99.90
11736;DHT22;5924;51.398;7.088;2023-02-26T02:59:43;-1.40;99.90
11736;DHT22;5924;51.398;7.088;2023-02-26T03:02:17;-1.40;99.90
11736;DHT22;5924;51.398;7.088;2023-02-26T03:04:45;-1.40;99.90
11736;DHT22;5924;51.398;7.088;2023-02-26T03:07:11;-1.50;99.90
11736;DHT22;5924;51.398;7.088;2023-02-26T03:09:37;-1.60;99.90
11736;DHT22;5924;51.398;7.088;2023-02-26T03:12:03;-1.60;99.90
11736;DHT22;5924;51.398;7.088;2023-02-26T03:14:28;-1.60;99.90
11736;DHT22;5924;51.398;7.088;2023-02-26T03:22:38;-1.70;99.90
11736;DHT22;5924;51.398;7.088;2023-02-26T03:27:54;-1.80;99.90
11736;DHT22;5924;51.398;7.088;2023-02-26T03:30:50;-1.80;99.90
11736;DHT22;5924;51.398;7.088;2023-02-26T03:33:46;-1.80;99.90
11736;DHT22;5924;51.398;7.088;2023-02-26T03:39:04;-1.80;99.90
11736;DHT22;5924;51.398;7.088;2023-02-26T03:41:37;-1.90;99.90
11736;DHT22;5924;51.398;7.088;2023-02-26T03:44:11;-1.90;99.90
11736;DHT22;5924;51.398;7.088;2023-02-26T03:46:49;-2.00;99.90
11736;DHT22;5924;51.398;7.088;2023-02-26T03:49:21;-2.10;99.90
11736;DHT22;5924;51.398;7.088;2023-02-26T03:51:49;-2.10;99.90
11736;DHT22;5924;51.398;7.088;2023-02-26T03:54:18;-2.20;99.90
11736;DHT22;5924;51.398;7.088;2023-02-26T03:56:46;-2.20;99.90
11736;DHT22;5924;51.398;7.088;2023-02-26T03:59:13;-2.20;99.90
11736;DHT22;5924;51.398;7.088;2023-02-26T04:01:45;-2.20;99.90
11736;DHT22;5924;51.398;7.088;2023-02-26T04:04:22;-2.20;99.90
11736;DHT22;5924;51.398;7.088;2023-02-26T04:06:49;-2.30;99.90
11736;DHT22;5924;51.398;7.088;2023-02-26T04:09:17;-2.30;99.90
11736;DHT22;5924;51.398;7.088;2023-02-26T04:11:44;-2.30;99.90
11736;DHT22;5924;51.398;7.088;2023-02-26T04:14:10;-2.30;99.90
11736;DHT22;5924;51.398;7.088;2023-02-26T04:16:36;-5.20;99.90
11736;DHT22;5924;51.398;7.088;2023-02-26T04:19:01;-2.40;99.90
11736;DHT22;5924;51.398;7.088;2023-02-26T04:21:27;-2.40;99.90
11736;DHT22;5924;51.398;7.088;2023-02-26T04:23:53;-2.40;99.90
11736;DHT22;5924;51.398;7.088;2023-02-26T04:26:18;-2.50;99.90
11736;DHT22;5924;51.398;7.088;2023-02-26T04:28:44;-2.50;99.90
11736;DHT22;5924;51.398;7.088;2023-02-26T04:31:10;-2.50;99.90
11736;DHT22;5924;51.398;7.088;2023-02-26T04:33:36;-2.40;99.90
11736;DHT22;5924;51.398;7.088;2023-02-26T04:36:02;-2.40;99.90
11736;DHT22;5924;51.398;7.088;2023-02-26T04:38:28;-2.40;99.90
11736;DHT22;5924;51.398;7.088;2023-02-26T04:40:53;-2.40;99.90
11736;DHT22;5924;51.398;7.088;2023-02-26T04:43:19;-2.40;99.90
11736;DHT22;5924;51.398;7.088;2023-02-26T04:45:46;-2.20;99.90
11736;DHT22;5924;51.398;7.088;2023-02-26T04:48:13;-2.30;99.90
11736;DHT22;5924;51.398;7.088;2023-02-26T04:50:39;-2.20;99.90
11736;DHT22;5924;51.398;7.088;2023-02-26T04:53:05;-2.20;99.90
11736;DHT22;5924;51.398;7.088;2023-02-26T04:55:31;-2.10;99.90
11736;DHT22;5924;51.398;7.088;2023-02-26T04:57:57;-2.00;99.90
11736;DHT22;5924;51.398;7.088;2023-02-26T05:00:23;-1.90;99.90
11736;DHT22;5924;51.398;7.088;2023-02-26T05:02:50;-1.90;99.90
11736;DHT22;5924;51.398;7.088;2023-02-26T05:05:16;-1.90;99.90
11736;DHT22;5924;51.398;7.088;2023-02-26T05:07:41;-1.90;99.90
11736;DHT22;5924;51.398;7.088;2023-02-26T05:10:08;-1.90;99.90
11736;DHT22;5924;51.398;7.088;2023-02-26T05:12:34;-2.00;99.90
11736;DHT22;5924;51.398;7.088;2023-02-26T05:14:59;-2.10;99.90
11736;DHT22;5924;51.398;7.088;2023-02-26T05:17:25;-2.20;99.90
11736;DHT22;5924;51.398;7.088;2023-02-26T05:19:50;-2.20;99.90
11736;DHT22;5924;51.398;7.088;2023-02-26T05:22:16;-2.20;99.90
11736;DHT22;5924;51.398;7.088;2023-02-26T05:24:42;-2.20;99.90
11736;DHT22;5924;51.398;7.088;2023-02-26T05:27:08;-2.30;99.90
11736;DHT22;5924;51.398;7.088;2023-02-26T05:29:34;-2.30;99.90
11736;DHT22;5924;51.398;7.088;2023-02-26T05:31:59;-2.30;99.90
11736;DHT22;5924;51.398;7.088;2023-02-26T05:34:25;-2.40;99.90
11736;DHT22;5924;51.398;7.088;2023-02-26T05:36:51;-2.40;99.90
11736;DHT22;5924;51.398;7.088;2023-02-26T05:39:16;-2.40;99.90
11736;DHT22;5924;51.398;7.088;2023-02-26T05:41:42;-2.50;99.90
11736;DHT22;5924;51.398;7.088;2023-02-26T05:44:07;-2.50;99.90
11736;DHT22;5924;51.398;7.088;2023-02-26T05:46:33;-2.50;99.90
11736;DHT22;5924;51.398;7.088;2023-02-26T05:48:59;-2.50;99.90
11736;DHT22;5924;51.398;7.088;2023-02-26T05:51:25;-2.50;99.90
11736;DHT22;5924;51.398;7.088;2023-02-26T05:53:50;-2.50;99.90
11736;DHT22;5924;51.398;7.088;2023-02-26T05:56:16;-2.50;99.90
11736;DHT22;5924;51.398;7.088;2023-02-26T05:58:41;-2.60;99.90
11736;DHT22;5924;51.398;7.088;2023-02-26T06:01:07;-2.60;99.90
11736;DHT22;5924;51.398;7.088;2023-02-26T06:03:33;-2.70;99.90
11736;DHT22;5924;51.398;7.088;2023-02-26T06:05:58;-2.70;99.90
11736;DHT22;5924;51.398;7.088;2023-02-26T06:08:24;-2.80;99.90
11736;DHT22;5924;51.398;7.088;2023-02-26T06:10:50;-2.80;99.90
11736;DHT22;5924;51.398;7.088;2023-02-26T06:13:17;-2.80;99.90
11736;DHT22;5924;51.398;7.088;2023-02-26T06:15:43;-2.90;99.90
11736;DHT22;5924;51.398;7.088;2023-02-26T06:18:09;-2.90;99.90
11736;DHT22;5924;51.398;7.088;2023-02-26T06:20:34;-2.90;99.90
11736;DHT22;5924;51.398;7.088;2023-02-26T06:23:00;-2.90;99.90
11736;DHT22;5924;51.398;7.088;2023-02-26T06:25:26;-2.80;99.90
11736;DHT22;5924;51.398;7.088;2023-02-26T06:27:51;-2.80;99.90
11736;DHT22;5924;51.398;7.088;2023-02-26T06:30:17;-2.80;99.90
11736;DHT22;5924;51.398;7.088;2023-02-26T06:32:43;-2.80;99.90
11736;DHT22;5924;51.398;7.088;2023-02-26T06:35:09;-2.80;99.90
11736;DHT22;5924;51.398;7.088;2023-02-26T06:37:35;-2.90;99.90
11736;DHT22;5924;51.398;7.088;2023-02-26T06:40:01;-2.90;99.90
11736;DHT22;5924;51.398;7.088;2023-02-26T06:42:28;-2.90;99.90
11736;DHT22;5924;51.398;7.088;2023-02-26T06:44:53;-2.90;99.90
11736;DHT22;5924;51.398;7.088;2023-02-26T06:47:21;-2.90;99.90
11736;DHT22;5924;51.398;7.088;2023-02-26T06:49:47;-2.90;99.90
11736;DHT22;5924;51.398;7.088;2023-02-26T06:52:13;-2.40;99.90
11736;DHT22;5924;51.398;7.088;2023-02-26T06:54:39;-2.80;99.90
11736;DHT22;5924;51.398;7.088;2023-02-26T06:57:05;-2.80;99.90
11736;DHT22;5924;51.398;7.088;2023-02-26T06:59:30;-0.30;99.90
11736;DHT22;5924;51.398;7.088;2023-02-26T07:01:56;-2.70;99.90
11736;DHT22;5924;51.398;7.088;2023-02-26T07:04:22;-2.70;99.90
11736;DHT22;5924;51.398;7.088;2023-02-26T07:06:47;-1.60;99.90
11736;DHT22;5924;51.398;7.088;2023-02-26T07:09:13;-2.60;99.90
11736;DHT22;5924;51.398;7.088;2023-02-26T07:11:39;-2.60;99.90
11736;DHT22;5924;51.398;7.088;2023-02-26T07:14:04;-2.50;99.90
11736;DHT22;5924;51.398;7.088;2023-02-26T07:16:30;-2.40;99.90
11736;DHT22;5924;51.398;7.088;2023-02-26T07:18:56;-2.40;99.90
11736;DHT22;5924;51.398;7.088;2023-02-26T07:21:21;-2.40;99.90
11736;DHT22;5924;51.398;7.088;2023-02-26T07:23:47;-2.40;99.90
11736;DHT22;5924;51.398;7.088;2023-02-26T07:26:14;-2.40;99.90
11736;DHT22;5924;51.398;7.088;2023-02-26T07:28:41;-2.30;99.90
11736;DHT22;5924;51.398;7.088;2023-02-26T07:31:07;-2.20;99.90
11736;DHT22;5924;51.398;7.088;2023-02-26T07:33:33;-2.20;99.90
11736;DHT22;5924;51.398;7.088;2023-02-26T07:35:59;-2.20;99.90
11736;DHT22;5924;51.398;7.088;2023-02-26T07:38:25;-2.20;99.90
11736;DHT22;5924;51.398;7.088;2023-02-26T07:40:54;-2.10;99.90
11736;DHT22;5924;51.398;7.088;2023-02-26T07:43:21;-2.20;99.90
11736;DHT22;5924;51.398;7.088;2023-02-26T07:45:49;-2.20;99.90
11736;DHT22;5924;51.398;7.088;2023-02-26T07:48:15;-2.20;99.90
11736;DHT22;5924;51.398;7.088;2023-02-26T07:50:41;-2.10;99.90
11736;DHT22;5924;51.398;7.088;2023-02-26T07:53:07;-2.10;99.90
11736;DHT22;5924;51.398;7.088;2023-02-26T07:55:32;-2.10;99.90
11736;DHT22;5924;51.398;7.088;2023-02-26T07:57:58;-2.00;99.90
11736;DHT22;5924;51.398;7.088;2023-02-26T08:00:23;-1.90;99.90
11736;DHT22;5924;51.398;7.088;2023-02-26T08:02:49;-1.80;99.90
11736;DHT22;5924;51.398;7.088;2023-02-26T08:05:15;-1.80;99.90
11736;DHT22;5924;51.398;7.088;2023-02-26T08:07:40;-1.70;99.90
11736;DHT22;5924;51.398;7.088;2023-02-26T08:10:06;-1.70;99.90
11736;DHT22;5924;51.398;7.088;2023-02-26T08:12:32;-1.60;99.90
11736;DHT22;5924;51.398;7.088;2023-02-26T08:14:58;-1.50;99.90
11736;DHT22;5924;51.398;7.088;2023-02-26T08:17:23;-1.40;99.90
11736;DHT22;5924;51.398;7.088;2023-02-26T08:19:49;-1.40;99.90
11736;DHT22;5924;51.398;7.088;2023-02-26T08:22:15;-1.30;99.90
11736;DHT22;5924;51.398;7.088;2023-02-26T08:24:41;-1.20;99.90
11736;DHT22;5924;51.398;7.088;2023-02-26T08:27:06;-1.10;99.90
11736;DHT22;5924;51.398;7.088;2023-02-26T08:29:32;-1.00;99.90
11736;DHT22;5924;51.398;7.088;2023-02-26T08:31:58;-1.00;99.90
11736;DHT22;5924;51.398;7.088;2023-02-26T08:34:23;-0.90;99.90
11736;DHT22;5924;51.398;7.088;2023-02-26T08:36:49;-0.80;99.90
11736;DHT22;5924;51.398;7.088;2023-02-26T08:39:15;-0.70;99.90
11736;DHT22;5924;51.398;7.088;2023-02-26T08:41:40;-0.60;99.90
11736;DHT22;5924;51.398;7.088;2023-02-26T08:44:06;-0.50;99.90
11736;DHT22;5924;51.398;7.088;2023-02-26T08:46:32;-0.40;99.90
11736;DHT22;5924;51.398;7.088;2023-02-26T08:48:58;-0.30;99.90
11736;DHT22;5924;51.398;7.088;2023-02-26T08:51:24;-0.20;99.90
11736;DHT22;5924;51.398;7.088;2023-02-26T08:53:49;-0.10;99.90
11736;DHT22;5924;51.398;7.088;2023-02-26T08:56:16;0.20;99.90
11736;DHT22;5924;51.398;7.088;2023-02-26T08:58:42;0.00;99.90
11736;DHT22;5924;51.398;7.088;2023-02-26T09:01:08;0.10;99.90
11736;DHT22;5924;51.398;7.088;2023-02-26T09:03:33;0.20;99.90
11736;DHT22;5924;51.398;7.088;2023-02-26T09:05:59;0.20;99.90
11736;DHT22;5924;51.398;7.088;2023-02-26T09:08:25;0.70;99.90
11736;DHT22;5924;51.398;7.088;2023-02-26T09:10:50;0.40;99.90
11736;DHT22;5924;51.398;7.088;2023-02-26T09:13:16;0.70;99.90
11736;DHT22;5924;51.398;7.088;2023-02-26T09:15:42;0.90;99.90
11736;DHT22;5924;51.398;7.088;2023-02-26T09:18:08;0.60;99.90
11736;DHT22;5924;51.398;7.088;2023-02-26T09:20:43;0.70;99.90
11736;DHT22;5924;51.398;7.088;2023-02-26T09:23:09;0.80;99.90
11736;DHT22;5924;51.398;7.088;2023-02-26T09:25:34;0.90;99.90
11736;DHT22;5924;51.398;7.088;2023-02-26T09:28:00;0.90;99.90
11736;DHT22;5924;51.398;7.088;2023-02-26T09:30:26;1.10;99.90
11736;DHT22;5924;51.398;7.088;2023-02-26T09:32:52;1.20;99.90
11736;DHT22;5924;51.398;7.088;2023-02-26T09:35:17;1.30;99.90
11736;DHT22;5924;51.398;7.088;2023-02-26T09:37:43;1.40;99.90
11736;DHT22;5924;51.398;7.088;2023-02-26T09:43:29;1.60;99.90
11736;DHT22;5924;51.398;7.088;2023-02-26T09:46:10;4.40;99.90
11736;DHT22;5924;51.398;7.088;2023-02-26T09:48:37;1.80;99.90
11736;DHT22;5924;51.398;7.088;2023-02-26T09:51:04;1.90;99.90
11736;DHT22;5924;51.398;7.088;2023-02-26T09:53:34;2.00;99.90
11736;DHT22;5924;51.398;7.088;2023-02-26T09:56:23;2.00;99.90
11736;DHT22;5924;51.398;7.088;2023-02-26T09:58:50;2.00;99.90
11736;DHT22;5924;51.398;7.088;2023-02-26T10:01:35;2.10;99.90
11736;DHT22;5924;51.398;7.088;2023-02-26T10:04:27;2.10;99.90
11736;DHT22;5924;51.398;7.088;2023-02-26T10:09:45;2.00;99.90
11736;DHT22;5924;51.398;7.088;2023-02-26T10:12:20;2.10;99.90
11736;DHT22;5924;51.398;7.088;2023-02-26T10:15:43;1.50;99.90
11736;DHT22;5924;51.398;7.088;2023-02-26T10:18:28;2.70;99.90
11736;DHT22;5924;51.398;7.088;2023-02-26T10:23:36;2.90;99.90
11736;DHT22;5924;51.398;7.088;2023-02-26T10:26:10;2.80;99.90
11736;DHT22;5924;51.398;7.088;2023-02-26T10:31:37;3.00;99.90
11736;DHT22;5924;51.398;7.088;2023-02-26T10:37:07;3.30;99.90
11736;DHT22;5924;51.398;7.088;2023-02-26T10:39:46;2.20;99.90
11736;DHT22;5924;51.398;7.088;2023-02-26T10:42:46;3.50;99.90
11736;DHT22;5924;51.398;7.088;2023-02-26T10:50:56;3.50;99.90
11736;DHT22;5924;51.398;7.088;2023-02-26T10:53:23;3.50;99.90
11736;DHT22;5924;51.398;7.088;2023-02-26T10:58:36;3.50;99.90
11736;DHT22;5924;51.398;7.088;2023-02-26T11:01:09;3.90;99.90
11736;DHT22;5924;51.398;7.088;2023-02-26T11:03:43;3.70;99.90
11736;DHT22;5924;51.398;7.088;2023-02-26T11:06:17;3.50;99.90
11736;DHT22;5924;51.398;7.088;2023-02-26T11:08:51;3.50;99.90
11736;DHT22;5924;51.398;7.088;2023-02-26T11:14:05;3.80;99.90
11736;DHT22;5924;51.398;7.088;2023-02-26T11:16:31;3.90;99.90
11736;DHT22;5924;51.398;7.088;2023-02-26T11:18:59;4.10;99.90
11736;DHT22;5924;51.398;7.088;2023-02-26T11:21:30;3.70;99.90
11736;DHT22;5924;51.398;7.088;2023-02-26T11:24:11;3.70;99.90
11736;DHT22;5924;51.398;7.088;2023-02-26T11:26:42;3.70;99.90
11736;DHT22;5924;51.398;7.088;2023-02-26T11:29:15;3.60;99.90
11736;DHT22;5924;51.398;7.088;2023-02-26T11:31:42;3.60;99.90
11736;DHT22;5924;51.398;7.088;2023-02-26T11:34:10;3.70;99.90
11736;DHT22;5924;51.398;7.088;2023-02-26T11:36:39;3.70;99.90
11736;DHT22;5924;51.398;7.088;2023-02-26T11:39:16;3.60;99.90
11736;DHT22;5924;51.398;7.088;2023-02-26T11:41:45;3.70;99.90
11736;DHT22;5924;51.398;7.088;2023-02-26T11:47:05;3.60;99.90
11736;DHT22;5924;51.398;7.088;2023-02-26T11:49:31;3.60;99.90
11736;DHT22;5924;51.398;7.088;2023-02-26T11:54:43;3.60;99.90
11736;DHT22;5924;51.398;7.088;2023-02-26T11:57:19;3.70;99.90
11736;DHT22;5924;51.398;7.088;2023-02-26T11:59:52;3.60;99.90
11736;DHT22;5924;51.398;7.088;2023-02-26T12:02:22;3.60;99.90
11736;DHT22;5924;51.398;7.088;2023-02-26T12:04:52;3.70;99.90
11736;DHT22;5924;51.398;7.088;2023-02-26T12:07:18;3.80;99.90
11736;DHT22;5924;51.398;7.088;2023-02-26T12:09:45;3.90;99.90
11736;DHT22;5924;51.398;7.088;2023-02-26T12:12:24;3.90;99.90
11736;DHT22;5924;51.398;7.088;2023-02-26T12:18:02;3.90;99.90
11736;DHT22;5924;51.398;7.088;2023-02-26T12:20:43;4.00;99.90
11736;DHT22;5924;51.398;7.088;2023-02-26T12:23:22;4.10;99.90
11736;DHT22;5924;51.398;7.088;2023-02-26T13:03:34;8.60;86.50
11736;DHT22;5924;51.398;7.088;2023-02-26T13:21:30;11.60;73.50
11736;DHT22;5924;51.398;7.088;2023-02-26T13:24:03;11.70;70.40
11736;DHT22;5924;51.398;7.088;2023-02-26T13:26:32;11.10;70.70
11736;DHT22;5924;51.398;7.088;2023-02-26T13:29:11;10.40;69.50
11736;DHT22;5924;51.398;7.088;2023-02-26T13:37:32;6.50;76.00
11736;DHT22;5924;51.398;7.088;2023-02-26T13:40:35;6.10;78.80
11736;DHT22;5924;51.398;7.088;2023-02-26T13:51:29;5.50;82.70
11736;DHT22;5924;51.398;7.088;2023-02-26T13:54:42;5.30;84.50
11736;DHT22;5924;51.398;7.088;2023-02-26T14:06:53;5.30;84.90
11736;DHT22;5924;51.398;7.088;2023-02-26T14:24:57;5.60;87.90
11736;DHT22;5924;51.398;7.088;2023-02-26T14:27:32;5.80;88.80
11736;DHT22;5924;51.398;7.088;2023-02-26T14:32:47;5.60;90.10
11736;DHT22;5924;51.398;7.088;2023-02-26T14:36:01;5.60;85.40
11736;DHT22;5924;51.398;7.088;2023-02-26T14:38:29;5.10;86.10
11736;DHT22;5924;51.398;7.088;2023-02-26T14:41:42;4.60;86.50
11736;DHT22;5924;51.398;7.088;2023-02-26T14:44:02;6.70;90.80
11736;DHT22;5924;51.398;7.088;2023-02-26T14:46:31;4.50;88.00
11736;DHT22;5924;51.398;7.088;2023-02-26T14:48:58;4.60;89.00
11736;DHT22;5924;51.398;7.088;2023-02-26T15:02:42;5.00;89.70
11736;DHT22;5924;51.398;7.088;2023-02-26T15:10:48;4.50;90.10
11736;DHT22;5924;51.398;7.088;2023-02-26T15:21:47;4.60;90.20
11736;DHT22;5924;51.398;7.088;2023-02-26T15:24:14;4.70;90.00
11736;DHT22;5924;51.398;7.088;2023-02-26T15:26:53;4.70;90.20
11736;DHT22;5924;51.398;7.088;2023-02-26T15:29:26;4.50;90.50
11736;DHT22;5924;51.398;7.088;2023-02-26T15:31:56;4.30;90.60
11736;DHT22;5924;51.398;7.088;2023-02-26T15:34:23;4.10;90.50
11736;DHT22;5924;51.398;7.088;2023-02-26T15:36:50;4.10;91.50
11736;DHT22;5924;51.398;7.088;2023-02-26T15:39:17;4.00;91.50
11736;DHT22;5924;51.398;7.088;2023-02-26T15:41:47;4.00;91.40
11736;DHT22;5924;51.398;7.088;2023-02-26T15:44:22;3.90;91.70
11736;DHT22;5924;51.398;7.088;2023-02-26T15:47:00;3.90;92.40
11736;DHT22;5924;51.398;7.088;2023-02-26T15:49:28;3.90;92.40
11736;DHT22;5924;51.398;7.088;2023-02-26T15:51:56;3.90;92.00
11736;DHT22;5924;51.398;7.088;2023-02-26T15:54:24;3.90;92.50
11736;DHT22;5924;51.398;7.088;2023-02-26T15:56:52;3.90;92.10
11736;DHT22;5924;51.398;7.088;2023-02-26T15:59:21;3.90;91.80
11736;DHT22;5924;51.398;7.088;2023-02-26T16:01:49;3.90;92.10
11736;DHT22;5924;51.398;7.088;2023-02-26T16:04:17;3.90;92.20
11736;DHT22;5924;51.398;7.088;2023-02-26T16:06:46;3.80;92.50
11736;DHT22;5924;51.398;7.088;2023-02-26T16:09:25;3.80;92.90
11736;DHT22;5924;51.398;7.088;2023-02-26T16:11:53;3.60;92.50
11736;DHT22;5924;51.398;7.088;2023-02-26T16:14:26;3.60;92.80
11736;DHT22;5924;51.398;7.088;2023-02-26T16:16:55;3.50;92.80
11736;DHT22;5924;51.398;7.088;2023-02-26T16:19:35;3.40;93.10
11736;DHT22;5924;51.398;7.088;2023-02-26T16:22:06;3.30;93.50
11736;DHT22;5924;51.398;7.088;2023-02-26T16:24:32;1.40;93.00
11736;DHT22;5924;51.398;7.088;2023-02-26T16:27:01;3.30;94.20
11736;DHT22;5924;51.398;7.088;2023-02-26T16:29:31;3.20;94.30
11736;DHT22;5924;51.398;7.088;2023-02-26T16:31:59;3.20;94.70
11736;DHT22;5924;51.398;7.088;2023-02-26T16:34:38;3.20;94.60
11736;DHT22;5924;51.398;7.088;2023-02-26T16:37:32;2.90;94.40
11736;DHT22;5924;51.398;7.088;2023-02-26T16:47:49;2.80;95.50
11736;DHT22;5924;51.398;7.088;2023-02-26T16:50:19;2.70;95.10
11736;DHT22;5924;51.398;7.088;2023-02-26T16:52:51;2.60;95.40
11736;DHT22;5924;51.398;7.088;2023-02-26T16:55:18;2.80;95.70
11736;DHT22;5924;51.398;7.088;2023-02-26T16:57:45;2.50;96.00
11736;DHT22;5924;51.398;7.088;2023-02-26T17:00:16;2.40;96.10
11736;DHT22;5924;51.398;7.088;2023-02-26T17:02:45;2.30;96.20
11736;DHT22;5924;51.398;7.088;2023-02-26T17:05:22;2.20;96.90
11736;DHT22;5924;51.398;7.088;2023-02-26T17:08:00;2.00;97.10
11736;DHT22;5924;51.398;7.088;2023-02-26T17:10:37;1.90;97.50
11736;DHT22;5924;51.398;7.088;2023-02-26T17:13:18;1.80;98.10
11736;DHT22;5924;51.398;7.088;2023-02-26T17:15:45;1.60;98.70
11736;DHT22;5924;51.398;7.088;2023-02-26T17:18:12;1.50;99.20
11736;DHT22;5924;51.398;7.088;2023-02-26T17:20:39;1.40;99.90
11736;DHT22;5924;51.398;7.088;2023-02-26T17:23:06;1.30;99.90
11736;DHT22;5924;51.398;7.088;2023-02-26T17:25:53;1.20;99.90
11736;DHT22;5924;51.398;7.088;2023-02-26T17:28:30;1.20;99.90
11736;DHT22;5924;51.398;7.088;2023-02-26T17:31:01;1.10;99.90
11736;DHT22;5924;51.398;7.088;2023-02-26T17:33:27;1.00;99.90
11736;DHT22;5924;51.398;7.088;2023-02-26T17:35:57;0.90;99.90
11736;DHT22;5924;51.398;7.088;2023-02-26T17:38:23;0.80;99.90
11736;DHT22;5924;51.398;7.088;2023-02-26T17:40:49;0.80;99.90
11736;DHT22;5924;51.398;7.088;2023-02-26T17:43:19;0.70;99.90
11736;DHT22;5924;51.398;7.088;2023-02-26T17:45:44;0.60;99.90
11736;DHT22;5924;51.398;7.088;2023-02-26T17:48:13;0.60;99.90
11736;DHT22;5924;51.398;7.088;2023-02-26T17:53:19;0.50;99.90
11736;DHT22;5924;51.398;7.088;2023-02-26T17:55:46;0.50;99.90
11736;DHT22;5924;51.398;7.088;2023-02-26T17:58:31;0.60;99.90
11736;DHT22;5924;51.398;7.088;2023-02-26T18:00:58;0.60;99.90
11736;DHT22;5924;51.398;7.088;2023-02-26T18:03:24;0.60;99.90
11736;DHT22;5924;51.398;7.088;2023-02-26T18:05:52;0.60;99.90
11736;DHT22;5924;51.398;7.088;2023-02-26T18:08:32;0.70;99.90
11736;DHT22;5924;51.398;7.088;2023-02-26T18:11:00;2.80;99.90
11736;DHT22;5924;51.398;7.088;2023-02-26T18:13:27;0.80;99.90
11736;DHT22;5924;51.398;7.088;2023-02-26T18:15:54;0.80;99.90
11736;DHT22;5924;51.398;7.088;2023-02-26T18:18:21;0.80;99.90
11736;DHT22;5924;51.398;7.088;2023-02-26T18:20:48;0.80;99.90
11736;DHT22;5924;51.398;7.088;2023-02-26T18:23:13;0.70;99.90
11736;DHT22;5924;51.398;7.088;2023-02-26T18:25:43;0.70;99.90
11736;DHT22;5924;51.398;7.088;2023-02-26T18:28:19;0.60;99.90
11736;DHT22;5924;51.398;7.088;2023-02-26T18:30:46;0.60;99.90
11736;DHT22;5924;51.398;7.088;2023-02-26T18:33:12;0.90;99.90
11736;DHT22;5924;51.398;7.088;2023-02-26T18:35:42;0.70;99.90
11736;DHT22;5924;51.398;7.088;2023-02-26T18:38:15;0.70;99.90
11736;DHT22;5924;51.398;7.088;2023-02-26T18:40:42;1.00;99.90
11736;DHT22;5924;51.398;7.088;2023-02-26T18:43:08;0.90;99.90
11736;DHT22;5924;51.398;7.088;2023-02-26T18:45:38;0.90;99.90
11736;DHT22;5924;51.398;7.088;2023-02-26T18:48:04;1.00;99.90
11736;DHT22;5924;51.398;7.088;2023-02-26T18:50:29;1.60;99.90
11736;DHT22;5924;51.398;7.088;2023-02-26T18:52:58;1.10;99.90
11736;DHT22;5924;51.398;7.088;2023-02-26T18:55:24;1.20;99.90
11736;DHT22;5924;51.398;7.088;2023-02-26T18:57:49;1.20;99.90
11736;DHT22;5924;51.398;7.088;2023-02-26T19:00:15;1.30;99.90
11736;DHT22;5924;51.398;7.088;2023-02-26T19:02:42;1.30;99.90
11736;DHT22;5924;51.398;7.088;2023-02-26T19:05:09;1.30;99.90
11736;DHT22;5924;51.398;7.088;2023-02-26T19:07:36;1.30;99.90
11736;DHT22;5924;51.398;7.088;2023-02-26T19:10:06;1.20;99.90
11736;DHT22;5924;51.398;7.088;2023-02-26T19:12:33;1.30;99.90
11736;DHT22;5924;51.398;7.088;2023-02-26T19:14:59;1.30;99.90
11736;DHT22;5924;51.398;7.088;2023-02-26T19:17:25;1.40;99.90
11736;DHT22;5924;51.398;7.088;2023-02-26T19:19:51;1.50;99.90
11736;DHT22;5924;51.398;7.088;2023-02-26T19:22:16;1.60;99.90
11736;DHT22;5924;51.398;7.088;2023-02-26T19:24:42;1.50;99.90
11736;DHT22;5924;51.398;7.088;2023-02-26T19:27:10;1.40;99.90
11736;DHT22;5924;51.398;7.088;2023-02-26T19:29:36;1.50;99.90
11736;DHT22;5924;51.398;7.088;2023-02-26T19:32:04;1.50;99.90
11736;DHT22;5924;51.398;7.088;2023-02-26T19:34:30;1.50;99.90
11736;DHT22;5924;51.398;7.088;2023-02-26T19:36:56;1.50;99.90
11736;DHT22;5924;51.398;7.088;2023-02-26T19:39:22;1.50;99.90
11736;DHT22;5924;51.398;7.088;2023-02-26T19:41:49;1.50;99.90